createdAt,value
2023-05-21T00:00:30.348Z,100597.28
2023-05-21T00:02:59.107Z,100596.22
2023-05-21T00:05:26.568Z,100596.34
2023-05-21T00:07:54.866Z,100601.09
2023-05-21T00:10:22.580Z,100612.09
2023-05-21T00:12:49.783Z,100611.03
2023-05-21T00:15:17.038Z,100605.75
2023-05-21T00:17:46.078Z,100609.22
2023-05-21T00:20:13.309Z,100610.88
2023-05-21T00:22:42.320Z,100617.53
2023-05-21T00:25:11.378Z,100620.37
2023-05-21T00:27:39.378Z,100617.63
2023-05-21T00:30:07.271Z,100618.78
2023-05-21T00:32:34.934Z,100615.78
2023-05-21T00:35:02.934Z,100614.47
2023-05-21T00:37:34.360Z,100615.91
2023-05-21T00:40:02.241Z,100608.19
2023-05-21T00:42:30.714Z,100614.34
2023-05-21T00:44:58.274Z,100613.84
2023-05-21T00:47:29.607Z,100606.44
2023-05-21T00:49:56.950Z,100617.88
2023-05-21T00:52:26.787Z,100601.16
2023-05-21T00:54:54.305Z,100599.59
2023-05-21T00:57:23.927Z,100597.31
2023-05-21T00:59:53.060Z,100592.66
2023-05-21T01:02:20.771Z,100599.87
2023-05-21T01:04:48.081Z,100594.06
2023-05-21T01:07:15.209Z,100595.81
2023-05-21T01:09:43.028Z,100595.31
2023-05-21T01:12:11.157Z,100596.53
2023-05-21T01:14:39.375Z,100592.97
2023-05-21T01:17:10.400Z,100590.31
2023-05-21T01:19:37.853Z,100583.50
2023-05-21T01:22:07.360Z,100584.22
2023-05-21T01:24:35.469Z,100582.19
2023-05-21T01:27:05.300Z,100582.38
2023-05-21T01:29:32.418Z,100584.47
2023-05-21T01:32:16.594Z,100585.09
2023-05-21T01:34:57.048Z,100587.22
2023-05-21T01:37:31.640Z,100584.91
2023-05-21T01:40:05.148Z,100586.81
2023-05-21T01:42:34.502Z,100585.34
2023-05-21T01:45:06.188Z,100587.25
2023-05-21T01:47:34.886Z,100586.63
2023-05-21T01:50:03.736Z,100591.12
2023-05-21T01:52:30.938Z,100586.00
2023-05-21T01:55:00.359Z,100591.84
2023-05-21T01:57:27.600Z,100588.28
2023-05-21T01:59:55.269Z,100589.69
2023-05-21T02:02:22.773Z,100592.87
2023-05-21T02:04:50.400Z,100584.84
2023-05-21T02:07:18.426Z,100587.78
2023-05-21T02:09:45.703Z,100592.28
2023-05-21T02:12:13.375Z,100592.56
2023-05-21T02:14:40.603Z,100595.31
2023-05-21T02:17:08.185Z,100577.84
2023-05-21T02:19:35.852Z,100583.78
2023-05-21T02:22:03.444Z,100585.78
2023-05-21T02:24:31.359Z,100583.38
2023-05-21T02:26:58.657Z,100590.50
2023-05-21T02:29:26.162Z,100581.16
2023-05-21T02:31:53.371Z,100579.50
2023-05-21T02:34:20.858Z,100577.44
2023-05-21T02:36:48.542Z,100577.31
2023-05-21T02:39:15.713Z,100580.66
2023-05-21T02:41:42.934Z,100576.91
2023-05-21T02:44:10.995Z,100577.97
2023-05-21T02:46:38.190Z,100582.56
2023-05-21T02:49:05.582Z,100585.16
2023-05-21T02:51:33.127Z,100585.28
2023-05-21T02:54:00.371Z,100586.41
2023-05-21T02:56:27.650Z,100587.47
2023-05-21T02:58:55.127Z,100584.56
2023-05-21T03:01:22.601Z,100583.09
2023-05-21T03:03:50.144Z,100575.34
2023-05-21T03:06:17.725Z,100577.97
2023-05-21T03:08:44.962Z,100571.38
2023-05-21T03:11:12.165Z,100580.44
2023-05-21T03:13:39.884Z,100580.34
2023-05-21T03:16:07.234Z,100585.97
2023-05-21T03:18:34.465Z,100580.50
2023-05-21T03:21:02.085Z,100576.16
2023-05-21T03:23:29.279Z,100567.66
2023-05-21T03:25:56.488Z,100574.56
2023-05-21T03:28:24.300Z,100570.03
2023-05-21T03:30:52.180Z,100565.22
2023-05-21T03:33:20.557Z,100573.66
2023-05-21T03:35:48.066Z,100570.31
2023-05-21T03:38:15.946Z,100566.34
2023-05-21T03:40:43.202Z,100573.38
2023-05-21T03:43:10.659Z,100579.09
2023-05-21T03:45:38.203Z,100579.00
2023-05-21T03:48:07.382Z,100579.44
2023-05-21T03:50:35.039Z,100581.41
2023-05-21T03:53:02.234Z,100580.72
2023-05-21T03:55:30.397Z,100585.75
2023-05-21T03:57:58.968Z,100591.12
2023-05-21T04:00:26.250Z,100595.78
2023-05-21T04:02:54.452Z,100599.87
2023-05-21T04:05:21.667Z,100596.78
2023-05-21T04:07:50.056Z,100600.75
2023-05-21T04:10:17.684Z,100596.34
2023-05-21T04:12:44.871Z,100603.53
2023-05-21T04:15:12.555Z,100596.16
2023-05-21T04:17:40.494Z,100601.06
2023-05-21T04:20:08.378Z,100596.69
2023-05-21T04:22:35.707Z,100601.47
2023-05-21T04:25:03.450Z,100601.72
2023-05-21T04:27:30.937Z,100605.50
2023-05-21T04:29:58.476Z,100596.44
2023-05-21T04:32:26.028Z,100603.56
2023-05-21T04:34:53.269Z,100605.66
2023-05-21T04:37:20.431Z,100600.94
2023-05-21T04:39:48.098Z,100606.75
2023-05-21T04:42:15.327Z,100600.44
2023-05-21T04:44:44.349Z,100601.62
2023-05-21T04:47:14.966Z,100596.63
2023-05-21T04:49:42.386Z,100597.41
2023-05-21T04:52:09.641Z,100596.06
2023-05-21T04:54:38.934Z,100590.84
2023-05-21T04:57:06.741Z,100595.63
2023-05-21T04:59:34.814Z,100598.97
2023-05-21T05:02:02.755Z,100595.12
2023-05-21T05:04:29.937Z,100592.09
2023-05-21T05:06:57.214Z,100601.53
2023-05-21T05:09:25.278Z,100599.87
2023-05-21T05:11:53.038Z,100595.19
2023-05-21T05:14:20.325Z,100594.50
2023-05-21T05:16:50.591Z,100593.03
2023-05-21T05:19:17.966Z,100602.72
2023-05-21T05:21:45.175Z,100602.63
2023-05-21T05:24:12.660Z,100598.91
2023-05-21T05:26:39.836Z,100600.56
2023-05-21T05:29:07.042Z,100596.41
2023-05-21T05:31:34.622Z,100596.13
2023-05-21T05:34:02.251Z,100600.84
2023-05-21T05:36:29.607Z,100597.41
2023-05-21T05:38:57.107Z,100604.19
2023-05-21T05:41:24.434Z,100604.31
2023-05-21T05:43:51.668Z,100601.12
2023-05-21T05:46:20.407Z,100598.66
2023-05-21T05:48:47.662Z,100601.41
2023-05-21T05:51:17.188Z,100601.53
2023-05-21T05:53:45.851Z,100591.38
2023-05-21T05:56:13.075Z,100594.75
2023-05-21T05:58:41.124Z,100593.63
2023-05-21T06:01:09.036Z,100595.84
2023-05-21T06:03:36.691Z,100591.66
2023-05-21T06:06:06.260Z,100589.13
2023-05-21T06:08:37.343Z,100580.47
2023-05-21T06:11:05.627Z,100583.25
2023-05-21T06:13:32.879Z,100583.94
2023-05-21T06:16:00.353Z,100588.22
2023-05-21T06:18:27.902Z,100590.59
2023-05-21T06:20:55.312Z,100591.94
2023-05-21T06:23:22.898Z,100593.03
2023-05-21T06:25:50.516Z,100595.81
2023-05-21T06:28:18.283Z,100591.50
2023-05-21T06:30:45.803Z,100583.16
2023-05-21T06:33:13.347Z,100585.87
2023-05-21T06:35:40.749Z,100580.75
2023-05-21T06:38:08.234Z,100580.63
2023-05-21T06:40:36.317Z,100576.31
2023-05-21T06:43:05.301Z,100571.66
2023-05-21T06:45:37.773Z,100578.31
2023-05-21T06:48:07.034Z,100565.87
2023-05-21T06:50:34.404Z,100570.31
2023-05-21T06:53:01.742Z,100568.31
2023-05-21T06:55:29.376Z,100565.66
2023-05-21T06:57:57.827Z,100565.91
2023-05-21T07:00:25.494Z,100568.78
2023-05-21T07:02:54.220Z,100566.03
2023-05-21T07:05:21.633Z,100561.75
2023-05-21T07:07:48.824Z,100563.63
2023-05-21T07:10:16.502Z,100559.31
2023-05-21T07:12:43.711Z,100562.66
2023-05-21T07:15:11.221Z,100554.38
2023-05-21T07:17:39.374Z,100557.25
2023-05-21T07:20:10.193Z,100557.97
2023-05-21T07:22:39.053Z,100551.06
2023-05-21T07:25:08.697Z,100545.00
2023-05-21T07:27:36.142Z,100547.19
2023-05-21T07:30:04.038Z,100544.09
2023-05-21T07:32:31.986Z,100542.78
2023-05-21T07:35:02.126Z,100548.56
2023-05-21T07:37:30.861Z,100556.31
2023-05-21T07:39:58.796Z,100549.25
2023-05-21T07:42:26.284Z,100548.34
2023-05-21T07:44:53.653Z,100545.03
2023-05-21T07:47:23.566Z,100549.69
2023-05-21T07:49:51.123Z,100550.97
2023-05-21T07:52:18.566Z,100551.09
2023-05-21T07:54:46.138Z,100543.66
2023-05-21T07:57:13.441Z,100540.88
2023-05-21T07:59:41.950Z,100548.87
2023-05-21T08:02:09.551Z,100538.66
2023-05-21T08:04:40.950Z,100542.63
2023-05-21T08:07:09.831Z,100547.12
2023-05-21T08:09:37.453Z,100545.94
2023-05-21T08:12:05.202Z,100550.31
2023-05-21T08:14:32.446Z,100549.13
2023-05-21T08:17:00.404Z,100549.66
2023-05-21T08:19:27.891Z,100545.03
2023-05-21T08:21:55.322Z,100549.69
2023-05-21T08:24:24.110Z,100551.03
2023-05-21T08:26:51.534Z,100552.53
2023-05-21T08:29:18.827Z,100551.06
2023-05-21T08:31:46.329Z,100551.72
2023-05-21T08:34:13.556Z,100551.72
2023-05-21T08:36:43.321Z,100547.06
2023-05-21T08:39:13.109Z,100542.75
2023-05-21T08:41:41.554Z,100542.78
2023-05-21T08:44:12.280Z,100546.44
2023-05-21T08:46:41.335Z,100548.91
2023-05-21T08:49:12.208Z,100543.47
2023-05-21T08:51:39.853Z,100542.63
2023-05-21T08:54:08.021Z,100537.12
2023-05-21T08:56:35.945Z,100543.25
2023-05-21T08:59:03.419Z,100544.12
2023-05-21T09:01:33.373Z,100539.44
2023-05-21T09:04:18.859Z,100538.13
2023-05-21T09:06:47.998Z,100536.44
2023-05-21T09:09:33.208Z,100535.59
2023-05-21T09:12:01.194Z,100541.53
2023-05-21T09:14:28.925Z,100532.28
2023-05-21T09:16:57.330Z,100535.09
2023-05-21T09:19:25.049Z,100534.97
2023-05-21T09:21:55.489Z,100533.59
2023-05-21T09:24:23.262Z,100534.06
2023-05-21T09:26:51.329Z,100547.81
2023-05-21T09:29:19.135Z,100535.78
2023-05-21T09:31:46.620Z,100541.72
2023-05-21T09:34:14.620Z,100534.03
2023-05-21T09:36:41.991Z,100535.84
2023-05-21T09:39:11.267Z,100532.34
2023-05-21T09:41:38.729Z,100534.28
2023-05-21T09:44:05.938Z,100537.91
2023-05-21T09:46:39.421Z,100542.91
2023-05-21T09:49:07.528Z,100542.56
2023-05-21T09:51:38.998Z,100538.94
2023-05-21T09:54:06.385Z,100528.97
2023-05-21T09:56:34.598Z,100534.56
2023-05-21T09:59:04.412Z,100529.19
2023-05-21T10:01:33.927Z,100529.44
2023-05-21T10:04:07.000Z,100524.87
2023-05-21T10:06:38.127Z,100518.87
2023-05-21T10:09:10.648Z,100527.50
2023-05-21T10:11:38.070Z,100523.78
2023-05-21T10:14:12.099Z,100521.56
2023-05-21T10:16:39.723Z,100513.09
2023-05-21T10:19:11.049Z,100512.38
2023-05-21T10:21:39.889Z,100512.16
2023-05-21T10:24:09.135Z,100504.44
2023-05-21T10:26:36.811Z,100508.03
2023-05-21T10:29:04.244Z,100503.19
2023-05-21T10:31:33.111Z,100504.19
2023-05-21T10:34:00.639Z,100505.66
2023-05-21T10:36:31.776Z,100502.91
2023-05-21T10:39:00.716Z,100506.50
2023-05-21T10:41:28.218Z,100507.16
2023-05-21T10:44:20.316Z,100506.97
2023-05-21T10:47:05.341Z,100499.91
2023-05-21T10:49:35.851Z,100490.09
2023-05-21T10:52:22.678Z,100494.78
2023-05-21T10:55:05.266Z,100495.06
2023-05-21T10:58:07.792Z,100495.00
2023-05-21T11:00:35.228Z,100499.00
2023-05-21T11:03:03.606Z,100497.53
2023-05-21T11:05:41.762Z,100491.81
2023-05-21T11:08:22.201Z,100483.63
2023-05-21T11:10:58.972Z,100491.44
2023-05-21T11:13:27.861Z,100485.78
2023-05-21T11:15:57.749Z,100482.28
2023-05-21T11:18:40.240Z,100487.50
2023-05-21T11:21:18.592Z,100486.12
2023-05-21T11:24:06.434Z,100475.50
2023-05-21T11:26:48.938Z,100476.59
2023-05-21T11:29:18.210Z,100478.41
2023-05-21T11:31:47.242Z,100477.37
2023-05-21T11:34:15.602Z,100476.78
2023-05-21T11:36:49.692Z,100470.94
2023-05-21T11:39:22.043Z,100476.97
2023-05-21T11:41:54.125Z,100480.84
2023-05-21T11:44:41.118Z,100469.34
2023-05-21T11:47:10.101Z,100465.22
2023-05-21T11:49:38.368Z,100461.44
2023-05-21T11:52:07.091Z,100456.31
2023-05-21T11:54:39.918Z,100455.88
2023-05-21T11:57:08.155Z,100453.66
2023-05-21T11:59:36.376Z,100455.88
2023-05-21T12:02:04.166Z,100463.94
2023-05-21T12:04:32.658Z,100451.94
2023-05-21T12:07:05.089Z,100451.19
2023-05-21T12:09:58.632Z,100448.19
2023-05-21T12:12:33.050Z,100444.37
2023-05-21T12:15:10.302Z,100444.19
2023-05-21T12:17:37.805Z,100437.69
2023-05-21T12:20:08.215Z,100429.97
2023-05-21T12:22:35.653Z,100436.41
2023-05-21T12:25:04.343Z,100444.69
2023-05-21T12:27:33.446Z,100442.28
2023-05-21T12:30:02.219Z,100427.03
2023-05-21T12:32:29.406Z,100422.28
2023-05-21T12:34:56.556Z,100430.06
2023-05-21T12:37:25.628Z,100427.94
2023-05-21T12:39:59.010Z,100425.03
2023-05-21T12:42:27.356Z,100426.13
2023-05-21T12:44:54.950Z,100423.00
2023-05-21T12:47:26.585Z,100417.56
2023-05-21T12:49:57.993Z,100420.50
2023-05-21T12:52:25.361Z,100418.44
2023-05-21T12:54:54.620Z,100415.66
2023-05-21T12:57:48.388Z,100408.69
2023-05-21T13:00:23.585Z,100405.75
2023-05-21T13:02:51.717Z,100409.50
2023-05-21T13:05:19.422Z,100402.75
2023-05-21T13:07:47.639Z,100411.28
2023-05-21T13:10:18.783Z,100402.00
2023-05-21T13:12:46.289Z,100400.44
2023-05-21T13:15:13.992Z,100393.88
2023-05-21T13:17:41.459Z,100395.03
2023-05-21T13:20:13.329Z,100391.34
2023-05-21T13:22:48.074Z,100381.91
2023-05-21T13:25:21.303Z,100388.56
2023-05-21T13:27:49.684Z,100379.75
2023-05-21T13:30:17.853Z,100382.66
2023-05-21T13:32:45.219Z,100373.09
2023-05-21T13:35:12.678Z,100374.25
2023-05-21T13:37:40.957Z,100369.53
2023-05-21T13:40:12.357Z,100372.81
2023-05-21T13:42:40.375Z,100364.16
2023-05-21T13:45:09.703Z,100366.56
2023-05-21T13:47:39.983Z,100368.94
2023-05-21T13:50:09.143Z,100369.19
2023-05-21T13:52:36.919Z,100359.78
2023-05-21T13:55:04.816Z,100359.72
2023-05-21T13:57:32.577Z,100364.09
2023-05-21T14:00:00.857Z,100366.44
2023-05-21T14:02:28.221Z,100355.13
2023-05-21T14:04:55.842Z,100353.78
2023-05-21T14:07:23.139Z,100360.78
2023-05-21T14:09:50.457Z,100355.09
2023-05-21T14:12:18.225Z,100364.09
2023-05-21T14:14:46.022Z,100350.78
2023-05-21T14:17:13.225Z,100358.25
2023-05-21T14:19:41.205Z,100355.03
2023-05-21T14:22:08.306Z,100350.94
2023-05-21T14:24:35.477Z,100347.69
2023-05-21T14:27:02.935Z,100350.88
2023-05-21T14:29:30.063Z,100349.59
2023-05-21T14:31:57.369Z,100341.28
2023-05-21T14:34:24.878Z,100337.44
2023-05-21T14:36:52.073Z,100335.19
2023-05-21T14:39:19.269Z,100338.06
2023-05-21T14:41:46.798Z,100335.41
2023-05-21T14:44:13.923Z,100340.47
2023-05-21T14:46:41.139Z,100334.38
2023-05-21T14:49:08.659Z,100343.16
2023-05-21T14:51:35.997Z,100339.69
2023-05-21T14:54:03.257Z,100334.31
2023-05-21T14:56:30.766Z,100333.91
2023-05-21T14:58:57.916Z,100328.94
2023-05-21T15:01:25.156Z,100320.38
2023-05-21T15:03:52.826Z,100323.50
2023-05-21T15:06:20.129Z,100317.34
2023-05-21T15:08:47.335Z,100323.28
2023-05-21T15:11:14.853Z,100325.37
2023-05-21T15:13:42.098Z,100317.53
2023-05-21T15:16:09.331Z,100321.19
2023-05-21T15:18:36.782Z,100325.25
2023-05-21T15:21:05.088Z,100322.00
2023-05-21T15:23:32.362Z,100320.69
2023-05-21T15:25:59.821Z,100321.22
2023-05-21T15:28:26.994Z,100324.66
2023-05-21T15:30:54.102Z,100316.38
2023-05-21T15:33:21.577Z,100324.41
2023-05-21T15:35:48.891Z,100317.09
2023-05-21T15:38:16.213Z,100317.69
2023-05-21T15:40:44.264Z,100317.75
2023-05-21T15:43:11.472Z,100318.37
2023-05-21T15:45:39.110Z,100318.97
2023-05-21T15:48:07.262Z,100314.34
2023-05-21T15:50:35.858Z,100316.84
2023-05-21T15:53:04.614Z,100312.50
2023-05-21T15:55:33.371Z,100317.44
2023-05-21T15:58:02.189Z,100320.09
2023-05-21T16:00:29.856Z,100314.50
2023-05-21T16:02:57.424Z,100311.09
2023-05-21T16:05:25.698Z,100319.94
2023-05-21T16:07:52.824Z,100319.72
2023-05-21T16:10:21.304Z,100323.25
2023-05-21T16:12:48.457Z,100314.22
2023-05-21T16:15:15.717Z,100320.66
2023-05-21T16:17:43.144Z,100317.56
2023-05-21T16:20:11.098Z,100322.69
2023-05-21T16:22:40.290Z,100319.25
2023-05-21T16:25:08.165Z,100321.97
2023-05-21T16:27:36.216Z,100320.12
2023-05-21T16:30:04.143Z,100323.69
2023-05-21T16:32:32.006Z,100317.75
2023-05-21T16:34:59.261Z,100322.88
2023-05-21T16:37:27.085Z,100321.06
2023-05-21T16:39:54.550Z,100338.37
2023-05-21T16:42:21.851Z,100342.91
2023-05-21T16:44:49.020Z,100340.19
2023-05-21T16:47:16.446Z,100335.63
2023-05-21T16:49:43.594Z,100337.75
2023-05-21T16:52:10.926Z,100336.44
2023-05-21T16:54:38.468Z,100334.84
2023-05-21T16:57:05.788Z,100341.25
2023-05-21T16:59:32.939Z,100341.03
2023-05-21T17:02:00.520Z,100345.78
2023-05-21T17:04:28.081Z,100340.22
2023-05-21T17:06:55.188Z,100345.84
2023-05-21T17:09:22.783Z,100342.53
2023-05-21T17:11:49.901Z,100347.59
2023-05-21T17:14:32.616Z,100347.62
2023-05-21T17:17:01.079Z,100340.91
2023-05-21T17:19:28.379Z,100342.09
2023-05-21T17:21:56.075Z,100344.97
2023-05-21T17:24:23.684Z,100349.91
2023-05-21T17:26:50.866Z,100353.56
2023-05-21T17:29:18.609Z,100359.13
2023-05-21T17:31:46.055Z,100353.13
2023-05-21T17:34:13.285Z,100354.09
2023-05-21T17:36:40.846Z,100352.91
2023-05-21T17:39:08.314Z,100354.09
2023-05-21T17:41:35.416Z,100358.03
2023-05-21T17:44:02.755Z,100361.34
2023-05-21T17:46:30.251Z,100355.69
2023-05-21T17:48:57.404Z,100351.31
2023-05-21T17:51:24.553Z,100362.50
2023-05-21T17:53:51.902Z,100354.03
2023-05-21T17:56:19.062Z,100353.81
2023-05-21T17:58:46.152Z,100355.25
2023-05-21T18:01:13.565Z,100353.41
2023-05-21T18:03:41.254Z,100347.47
2023-05-21T18:06:09.504Z,100346.97
2023-05-21T18:08:37.016Z,100348.63
2023-05-21T18:11:04.723Z,100350.19
2023-05-21T18:13:31.931Z,100350.81
2023-05-21T18:15:59.117Z,100343.69
2023-05-21T18:18:26.566Z,100345.94
2023-05-21T18:20:53.750Z,100338.13
2023-05-21T18:23:21.038Z,100342.34
2023-05-21T18:25:48.544Z,100343.41
2023-05-21T18:28:15.669Z,100345.16
2023-05-21T18:30:42.877Z,100343.75
2023-05-21T18:33:11.173Z,100338.91
2023-05-21T18:35:38.473Z,100346.97
2023-05-21T18:38:09.825Z,100351.28
2023-05-21T18:40:37.944Z,100356.66
2023-05-21T18:43:06.344Z,100354.81
2023-05-21T18:45:33.591Z,100359.63
2023-05-21T18:48:01.311Z,100356.09
2023-05-21T18:50:28.586Z,100361.41
2023-05-21T18:52:56.225Z,100358.84
2023-05-21T18:55:23.761Z,100357.12
2023-05-21T18:57:51.160Z,100362.03
2023-05-21T19:00:18.594Z,100364.69
2023-05-21T19:02:46.747Z,100371.12
2023-05-21T19:05:14.381Z,100374.75
2023-05-21T19:07:41.966Z,100375.22
2023-05-21T19:10:11.201Z,100378.69
2023-05-21T19:12:39.530Z,100373.69
2023-05-21T19:15:07.480Z,100377.88
2023-05-21T19:17:36.237Z,100383.44
2023-05-21T19:20:05.283Z,100383.19
2023-05-21T19:22:32.768Z,100384.88
2023-05-21T19:25:00.771Z,100383.22
2023-05-21T19:27:29.357Z,100384.88
2023-05-21T19:29:56.632Z,100380.88
2023-05-21T19:32:24.113Z,100385.72
2023-05-21T19:34:52.132Z,100388.47
2023-05-21T19:37:19.313Z,100386.66
2023-05-21T19:39:49.985Z,100397.34
2023-05-21T19:42:18.826Z,100398.16
2023-05-21T19:44:46.276Z,100395.53
2023-05-21T19:47:13.845Z,100391.81
2023-05-21T19:49:41.064Z,100397.59
2023-05-21T19:52:08.209Z,100393.56
2023-05-21T19:54:35.698Z,100394.28
2023-05-21T19:57:03.367Z,100388.19
2023-05-21T19:59:30.636Z,100397.31
2023-05-21T20:01:58.053Z,100400.63
2023-05-21T20:04:25.563Z,100391.06
2023-05-21T20:06:52.778Z,100395.06
2023-05-21T20:09:19.878Z,100400.88
2023-05-21T20:11:48.200Z,100400.03
2023-05-21T20:14:15.380Z,100401.38
2023-05-21T20:16:42.596Z,100397.09
2023-05-21T20:19:11.203Z,100402.50
2023-05-21T20:21:38.425Z,100397.25
2023-05-21T20:24:06.473Z,100393.91
2023-05-21T20:26:36.966Z,100408.41
2023-05-21T20:29:04.186Z,100388.91
2023-05-21T20:31:31.712Z,100396.66
2023-05-21T20:33:59.220Z,100399.13
2023-05-21T20:36:27.149Z,100399.25
2023-05-21T20:38:54.261Z,100395.91
2023-05-21T20:41:21.865Z,100396.41
2023-05-21T20:43:49.059Z,100390.75
2023-05-21T20:46:17.345Z,100392.41
2023-05-21T20:48:44.823Z,100391.81
2023-05-21T20:51:12.182Z,100397.31
2023-05-21T20:53:39.353Z,100402.87
2023-05-21T20:56:08.305Z,100398.88
2023-05-21T20:58:35.554Z,100390.16
2023-05-21T21:01:03.864Z,100393.72
2023-05-21T21:03:34.288Z,100397.56
2023-05-21T21:06:01.627Z,100390.91
2023-05-21T21:08:28.783Z,100396.44
2023-05-21T21:10:56.392Z,100391.12
2023-05-21T21:13:23.522Z,100386.53
2023-05-21T21:15:50.760Z,100390.66
2023-05-21T21:18:18.186Z,100384.88
2023-05-21T21:20:49.520Z,100380.56
2023-05-21T21:23:16.930Z,100386.91
2023-05-21T21:25:44.441Z,100385.25
2023-05-21T21:28:11.711Z,100384.69
2023-05-21T21:30:40.992Z,100385.87
2023-05-21T21:33:08.800Z,100381.47
2023-05-21T21:35:36.005Z,100381.00
2023-05-21T21:38:04.916Z,100387.22
2023-05-21T21:40:32.397Z,100385.94
2023-05-21T21:42:59.596Z,100379.31
2023-05-21T21:45:26.814Z,100389.28
2023-05-21T21:47:54.279Z,100384.97
2023-05-21T21:50:21.467Z,100382.50
2023-05-21T21:52:48.985Z,100385.94
2023-05-21T21:55:16.477Z,100386.09
2023-05-21T21:57:43.590Z,100379.16
2023-05-21T22:00:20.944Z,100388.38
2023-05-21T22:02:48.364Z,100387.56
2023-05-21T22:05:16.412Z,100386.97
2023-05-21T22:07:47.041Z,100397.22
2023-05-21T22:10:16.125Z,100417.06
2023-05-21T22:12:44.172Z,100422.84
2023-05-21T22:15:18.238Z,100423.87
2023-05-21T22:17:47.407Z,100428.47
2023-05-21T22:20:15.105Z,100436.16
2023-05-21T22:22:42.217Z,100439.19
2023-05-21T22:25:09.765Z,100423.94
2023-05-21T22:27:36.871Z,100431.28
2023-05-21T22:30:04.966Z,100437.56
2023-05-21T22:32:32.654Z,100445.62
2023-05-21T22:34:59.754Z,100436.56
2023-05-21T22:37:26.873Z,100428.31
2023-05-21T22:39:54.348Z,100427.41
2023-05-21T22:42:21.575Z,100420.28
2023-05-21T22:44:48.685Z,100435.25
2023-05-21T22:47:16.285Z,100434.88
2023-05-21T22:49:43.632Z,100426.28
2023-05-21T22:52:10.778Z,100421.59
2023-05-21T22:54:38.192Z,100422.66
2023-05-21T22:57:05.667Z,100422.38
2023-05-21T22:59:33.217Z,100428.16
2023-05-21T23:02:00.867Z,100423.66
2023-05-21T23:04:43.288Z,100432.38
2023-05-21T23:07:12.121Z,100425.91
2023-05-21T23:09:39.383Z,100427.00
2023-05-21T23:12:07.068Z,100424.50
2023-05-21T23:14:34.490Z,100417.03
2023-05-21T23:17:02.303Z,100418.69
2023-05-21T23:19:29.953Z,100422.59
2023-05-21T23:21:57.459Z,100419.56
2023-05-21T23:24:24.615Z,100425.03
2023-05-21T23:26:52.409Z,100415.59
2023-05-21T23:29:19.846Z,100406.87
2023-05-21T23:31:47.269Z,100403.75
2023-05-21T23:34:14.467Z,100400.69
2023-05-21T23:36:41.896Z,100403.56
2023-05-21T23:39:09.359Z,100402.16
2023-05-21T23:41:37.413Z,100397.91
2023-05-21T23:44:04.910Z,100400.72
2023-05-21T23:46:32.068Z,100407.72
2023-05-21T23:48:59.180Z,100416.78
2023-05-21T23:51:26.678Z,100419.47
2023-05-21T23:53:54.120Z,100416.44
2023-05-21T23:56:21.248Z,100414.06
2023-05-21T23:58:48.610Z,100408.03
